createdAt,value
2023-02-14T00:00:36.361Z,100751.09
2023-02-14T00:03:03.355Z,100743.19
2023-02-14T00:05:30.229Z,100745.22
2023-02-14T00:07:57.341Z,100748.94
2023-02-14T00:10:24.485Z,100751.81
2023-02-14T00:12:51.394Z,100748.47
2023-02-14T00:15:25.032Z,100746.78
2023-02-14T00:17:55.265Z,100743.41
2023-02-14T00:20:22.922Z,100738.03
2023-02-14T00:22:49.785Z,100737.19
2023-02-14T00:25:17.466Z,100736.53
2023-02-14T00:27:44.463Z,100734.03
2023-02-14T00:30:13.086Z,100738.75
2023-02-14T00:32:40.782Z,100730.88
2023-02-14T00:35:10.074Z,100727.34
2023-02-14T00:37:36.952Z,100730.03
2023-02-14T00:40:05.204Z,100733.75
2023-02-14T00:42:32.242Z,100720.47
2023-02-14T00:44:59.152Z,100730.56
2023-02-14T00:47:26.296Z,100727.88
2023-02-14T00:49:53.282Z,100727.25
2023-02-14T00:52:21.533Z,100727.41
2023-02-14T00:54:48.496Z,100727.41
2023-02-14T00:57:15.359Z,100724.06
2023-02-14T00:59:42.230Z,100727.78
2023-02-14T01:02:09.106Z,100730.66
2023-02-14T01:04:36.276Z,100720.91
2023-02-14T01:07:03.323Z,100718.22
2023-02-14T01:09:31.649Z,100726.47
2023-02-14T01:12:02.118Z,100722.78
2023-02-14T01:14:29.063Z,100722.13
2023-02-14T01:16:56.035Z,100722.13
2023-02-14T01:19:24.611Z,100719.59
2023-02-14T01:21:51.523Z,100717.09
2023-02-14T01:24:18.385Z,100728.88
2023-02-14T01:26:46.676Z,100721.84
2023-02-14T01:29:13.559Z,100727.22
2023-02-14T01:31:40.893Z,100729.25
2023-02-14T01:34:07.783Z,100729.25
2023-02-14T01:36:37.313Z,100719.69
2023-02-14T01:39:07.128Z,100732.09
2023-02-14T01:41:36.841Z,100726.94
2023-02-14T01:44:07.342Z,100718.00
2023-02-14T01:46:36.306Z,100716.34
2023-02-14T01:49:09.464Z,100712.97
2023-02-14T01:51:40.620Z,100714.84
2023-02-14T01:54:09.273Z,100710.47
2023-02-14T01:56:41.673Z,100721.22
2023-02-14T01:59:15.086Z,100717.06
2023-02-14T02:01:44.649Z,100724.50
2023-02-14T02:04:16.081Z,100722.63
2023-02-14T02:06:46.029Z,100728.16
2023-02-14T02:09:16.526Z,100721.13
2023-02-14T02:11:43.892Z,100717.63
2023-02-14T02:14:15.992Z,100721.31
2023-02-14T02:17:11.799Z,100716.94
2023-02-14T02:20:03.022Z,100722.50
2023-02-14T02:23:12.260Z,100717.97
2023-02-14T02:26:04.742Z,100724.72
2023-02-14T02:29:09.991Z,100710.59
2023-02-14T02:32:08.015Z,100709.78
2023-02-14T02:35:12.048Z,100707.09
2023-02-14T02:37:47.577Z,100713.69
2023-02-14T02:40:29.579Z,100707.44
2023-02-14T02:43:06.927Z,100710.16
2023-02-14T02:46:01.296Z,100718.03
2023-02-14T02:48:38.069Z,100714.69
2023-02-14T02:51:31.554Z,100715.69
2023-02-14T02:54:04.618Z,100709.69
2023-02-14T02:56:49.650Z,100708.84
2023-02-14T02:59:20.979Z,100712.53
2023-02-14T03:01:58.546Z,100707.34
2023-02-14T03:04:46.266Z,100708.16
2023-02-14T03:07:33.053Z,100706.66
2023-02-14T03:10:01.656Z,100707.53
2023-02-14T03:13:10.258Z,100704.16
2023-02-14T03:15:47.080Z,100707.69
2023-02-14T03:18:55.286Z,100702.47
2023-02-14T03:21:30.940Z,100710.69
2023-02-14T03:24:09.402Z,100704.50
2023-02-14T03:26:43.709Z,100708.88
2023-02-14T03:29:15.483Z,100701.63
2023-02-14T03:31:52.155Z,100698.28
2023-02-14T03:34:27.322Z,100695.59
2023-02-14T03:37:00.371Z,100706.34
2023-02-14T03:39:37.701Z,100702.00
2023-02-14T03:42:11.283Z,100703.84
2023-02-14T03:44:40.707Z,100695.75
2023-02-14T03:47:11.660Z,100689.56
2023-02-14T03:49:43.576Z,100693.25
2023-02-14T03:52:12.589Z,100692.44
2023-02-14T03:54:41.942Z,100691.59
2023-02-14T03:57:15.335Z,100694.28
2023-02-14T03:59:42.875Z,100690.72
2023-02-14T04:02:14.815Z,100689.91
2023-02-14T04:04:46.343Z,100697.13
2023-02-14T04:07:13.947Z,100695.31
2023-02-14T04:09:42.387Z,100686.72
2023-02-14T04:12:10.051Z,100689.41
2023-02-14T04:14:37.207Z,100691.28
2023-02-14T04:17:23.798Z,100679.50
2023-02-14T04:19:50.827Z,100686.94
2023-02-14T04:22:17.953Z,100688.78
2023-02-14T04:24:46.354Z,100692.31
2023-02-14T04:27:13.296Z,100696.00
2023-02-14T04:29:41.987Z,100697.19
2023-02-14T04:32:11.251Z,100698.69
2023-02-14T04:34:38.960Z,100694.34
2023-02-14T04:37:06.842Z,100692.66
2023-02-14T04:39:34.199Z,100693.31
2023-02-14T04:42:02.689Z,100701.75
2023-02-14T04:44:29.620Z,100695.34
2023-02-14T04:46:56.549Z,100691.00
2023-02-14T04:49:23.539Z,100695.34
2023-02-14T04:51:50.395Z,100690.16
2023-02-14T04:54:17.413Z,100693.03
2023-02-14T04:56:44.365Z,100694.03
2023-02-14T04:59:12.645Z,100692.38
2023-02-14T05:01:39.570Z,100685.31
2023-02-14T05:04:06.570Z,100692.38
2023-02-14T05:06:33.839Z,100687.19
2023-02-14T05:09:01.008Z,100683.47
2023-02-14T05:11:28.594Z,100683.63
2023-02-14T05:13:55.995Z,100693.38
2023-02-14T05:16:24.544Z,100690.03
2023-02-14T05:18:51.688Z,100688.19
2023-02-14T05:21:19.425Z,100685.50
2023-02-14T05:23:46.306Z,100686.69
2023-02-14T05:26:13.221Z,100696.63
2023-02-14T05:28:41.133Z,100687.69
2023-02-14T05:31:08.323Z,100688.56
2023-02-14T05:33:36.744Z,100694.94
2023-02-14T05:36:04.122Z,100695.94
2023-02-14T05:38:33.439Z,100695.94
2023-02-14T05:41:00.886Z,100693.94
2023-02-14T05:43:27.924Z,100702.47
2023-02-14T05:45:54.872Z,100697.59
2023-02-14T05:48:22.013Z,100706.75
2023-02-14T05:50:50.316Z,100708.94
2023-02-14T05:53:17.388Z,100715.44
2023-02-14T05:55:44.297Z,100708.53
2023-02-14T05:58:12.635Z,100709.47
2023-02-14T06:00:41.202Z,100712.31
2023-02-14T06:03:08.522Z,100708.88
2023-02-14T06:05:35.463Z,100698.03
2023-02-14T06:08:03.786Z,100695.28
2023-02-14T06:10:30.702Z,100699.53
2023-02-14T06:12:57.596Z,100697.81
2023-02-14T06:15:24.672Z,100704.78
2023-02-14T06:17:53.070Z,100704.53
2023-02-14T06:20:21.076Z,100706.28
2023-02-14T06:22:48.149Z,100707.91
2023-02-14T06:25:17.019Z,100715.03
2023-02-14T06:27:44.006Z,100706.84
2023-02-14T06:30:12.446Z,100709.28
2023-02-14T06:32:39.841Z,100704.81
2023-02-14T06:35:07.274Z,100710.47
2023-02-14T06:37:34.635Z,100707.00
2023-02-14T06:40:01.974Z,100706.63
2023-02-14T06:42:30.276Z,100705.59
2023-02-14T06:44:57.159Z,100703.56
2023-02-14T06:47:24.233Z,100714.34
2023-02-14T06:49:51.136Z,100700.03
2023-02-14T06:52:18.078Z,100707.47
2023-02-14T06:54:44.960Z,100706.63
2023-02-14T06:57:11.841Z,100703.31
2023-02-14T06:59:40.167Z,100703.50
2023-02-14T07:02:07.154Z,100706.56
2023-02-14T07:04:34.003Z,100705.25
2023-02-14T07:07:01.536Z,100702.75
2023-02-14T07:09:28.601Z,100707.50
2023-02-14T07:11:55.643Z,100707.22
2023-02-14T07:14:22.479Z,100707.59
2023-02-14T07:16:50.764Z,100706.84
2023-02-14T07:19:17.665Z,100708.69
2023-02-14T07:21:44.612Z,100714.91
2023-02-14T07:24:11.566Z,100712.16
2023-02-14T07:26:38.460Z,100704.06
2023-02-14T07:29:05.439Z,100712.28
2023-02-14T07:31:32.463Z,100704.28
2023-02-14T07:34:01.253Z,100700.47
2023-02-14T07:36:28.639Z,100706.38
2023-02-14T07:38:55.987Z,100705.00
2023-02-14T07:41:22.866Z,100705.69
2023-02-14T07:43:49.815Z,100715.34
2023-02-14T07:46:17.540Z,100715.38
2023-02-14T07:48:44.493Z,100711.69
2023-02-14T07:51:12.773Z,100708.22
2023-02-14T07:53:40.189Z,100711.19
2023-02-14T07:56:07.260Z,100713.06
2023-02-14T07:58:34.169Z,100708.94
2023-02-14T08:01:01.516Z,100707.94
2023-02-14T08:03:28.586Z,100713.94
2023-02-14T08:05:58.487Z,100708.34
2023-02-14T08:08:29.989Z,100695.88
2023-02-14T08:10:56.994Z,100709.19
2023-02-14T08:13:23.930Z,100708.16
2023-02-14T08:16:06.264Z,100703.19
2023-02-14T08:18:35.749Z,100705.69
2023-02-14T08:21:03.624Z,100704.44
2023-02-14T08:23:32.339Z,100706.94
2023-02-14T08:25:59.365Z,100714.88
2023-02-14T08:28:26.715Z,100716.97
2023-02-14T08:30:54.194Z,100716.75
2023-02-14T08:33:21.928Z,100711.16
2023-02-14T08:35:49.291Z,100709.09
2023-02-14T08:38:16.180Z,100709.53
2023-02-14T08:40:44.737Z,100709.31
2023-02-14T08:43:11.826Z,100715.34
2023-02-14T08:45:39.309Z,100718.69
2023-02-14T08:48:08.262Z,100709.53
2023-02-14T08:50:35.778Z,100713.72
2023-02-14T08:53:07.363Z,100721.63
2023-02-14T08:55:34.904Z,100718.53
2023-02-14T08:58:04.090Z,100712.06
2023-02-14T09:00:31.718Z,100718.94
2023-02-14T09:02:59.062Z,100722.47
2023-02-14T09:05:26.804Z,100720.53
2023-02-14T09:07:56.026Z,100717.19
2023-02-14T09:10:23.757Z,100722.09
2023-02-14T09:12:50.828Z,100715.19
2023-02-14T09:15:19.324Z,100717.84
2023-02-14T09:17:46.459Z,100719.63
2023-02-14T09:20:15.044Z,100721.44
2023-02-14T09:22:43.629Z,100724.28
2023-02-14T09:25:11.173Z,100716.34
2023-02-14T09:27:38.397Z,100715.06
2023-02-14T09:30:06.106Z,100714.81
2023-02-14T09:32:34.355Z,100716.44
2023-02-14T09:35:01.337Z,100712.22
2023-02-14T09:37:46.755Z,100718.19
2023-02-14T09:40:15.583Z,100715.44
2023-02-14T09:42:53.096Z,100710.63
2023-02-14T09:45:23.604Z,100707.00
2023-02-14T09:47:56.509Z,100709.44
2023-02-14T09:50:27.735Z,100708.34
2023-02-14T09:52:58.218Z,100705.00
2023-02-14T09:55:30.841Z,100704.38
2023-02-14T09:58:06.093Z,100701.19
2023-02-14T10:00:38.187Z,100701.59
2023-02-14T10:03:41.460Z,100707.56
2023-02-14T10:06:26.077Z,100704.44
2023-02-14T10:09:07.634Z,100697.75
2023-02-14T10:11:34.454Z,100705.00
2023-02-14T10:14:09.851Z,100701.19
2023-02-14T10:16:43.078Z,100700.38
2023-02-14T10:19:19.775Z,100689.09
2023-02-14T10:21:54.017Z,100692.84
2023-02-14T10:24:26.356Z,100691.38
2023-02-14T10:26:57.808Z,100699.47
2023-02-14T10:29:24.576Z,100679.09
2023-02-14T10:31:57.693Z,100687.94
2023-02-14T10:34:32.937Z,100688.13
2023-02-14T10:37:26.096Z,100687.31
2023-02-14T10:40:12.586Z,100686.00
2023-02-14T10:42:50.357Z,100685.16
2023-02-14T10:45:25.504Z,100678.44
2023-02-14T10:48:01.290Z,100681.34
2023-02-14T10:50:37.480Z,100676.78
2023-02-14T10:53:18.930Z,100675.13
2023-02-14T10:55:49.931Z,100664.72
2023-02-14T10:58:20.814Z,100672.13
2023-02-14T11:00:56.641Z,100665.28
2023-02-14T11:03:24.211Z,100672.06
2023-02-14T11:05:51.364Z,100666.84
2023-02-14T11:08:27.089Z,100662.06
2023-02-14T11:10:58.946Z,100655.00
2023-02-14T11:13:34.546Z,100653.72
2023-02-14T11:16:04.207Z,100655.75
2023-02-14T11:18:33.220Z,100651.56
2023-02-14T11:21:06.551Z,100645.31
2023-02-14T11:23:37.598Z,100642.19
2023-02-14T11:26:08.636Z,100632.63
2023-02-14T11:28:35.999Z,100622.03
2023-02-14T11:31:03.563Z,100630.31
2023-02-14T11:33:38.533Z,100625.28
2023-02-14T11:36:10.991Z,100618.41
2023-02-14T11:38:41.297Z,100609.88
2023-02-14T11:41:10.891Z,100614.44
2023-02-14T11:43:39.521Z,100615.81
2023-02-14T11:46:17.152Z,100615.56
2023-02-14T11:48:56.597Z,100606.19
2023-02-14T11:51:28.496Z,100613.13
2023-02-14T11:54:03.246Z,100606.25
2023-02-14T11:56:47.909Z,100597.53
2023-02-14T11:59:25.032Z,100597.72
2023-02-14T12:01:52.622Z,100594.38
2023-02-14T12:04:26.619Z,100587.31
2023-02-14T12:06:54.061Z,100583.31
2023-02-14T12:09:29.472Z,100574.41
2023-02-14T12:11:57.324Z,100571.44
2023-02-14T12:14:27.570Z,100569.03
2023-02-14T12:17:00.620Z,100563.50
2023-02-14T12:19:41.073Z,100555.59
2023-02-14T12:22:16.696Z,100557.28
2023-02-14T12:24:54.092Z,100539.81
2023-02-14T12:27:24.683Z,100543.25
2023-02-14T12:29:54.437Z,100539.63
2023-02-14T12:32:24.103Z,100528.88
2023-02-14T12:34:52.026Z,100525.41
2023-02-14T12:37:37.748Z,100521.94
2023-02-14T12:40:20.421Z,100515.72
2023-02-14T12:43:10.246Z,100510.16
2023-02-14T12:45:58.322Z,100511.22
2023-02-14T12:48:34.219Z,100501.50
2023-02-14T12:51:08.160Z,100500.72
2023-02-14T12:53:51.206Z,100491.78
2023-02-14T12:56:33.134Z,100489.94
2023-02-14T12:59:12.902Z,100481.22
2023-02-14T13:02:07.774Z,100473.16
2023-02-14T13:04:56.593Z,100466.97
2023-02-14T13:07:52.763Z,100464.69
2023-02-14T13:10:31.185Z,100458.66
2023-02-14T13:13:06.670Z,100454.53
2023-02-14T13:15:42.044Z,100449.97
2023-02-14T13:18:18.501Z,100436.06
2023-02-14T13:20:52.371Z,100435.00
2023-02-14T13:23:24.536Z,100429.41
2023-02-14T13:25:58.148Z,100428.94
2023-02-14T13:28:28.920Z,100428.28
2023-02-14T13:30:57.860Z,100435.34
2023-02-14T13:33:30.105Z,100428.03
2023-02-14T13:36:01.503Z,100427.81
2023-02-14T13:38:31.792Z,100423.22
2023-02-14T13:41:01.362Z,100420.31
2023-02-14T13:43:53.530Z,100412.19
2023-02-14T13:46:42.665Z,100414.88
2023-02-14T13:49:25.620Z,100413.81
2023-02-14T13:51:54.462Z,100406.31
2023-02-14T13:54:29.821Z,100402.16
2023-02-14T13:56:57.025Z,100408.78
2023-02-14T13:59:29.306Z,100397.75
2023-02-14T14:02:16.560Z,100393.41
2023-02-14T14:04:43.493Z,100391.47
2023-02-14T14:07:27.111Z,100387.31
2023-02-14T14:10:05.471Z,100385.19
2023-02-14T14:12:40.694Z,100387.69
2023-02-14T14:15:17.108Z,100381.56
2023-02-14T14:17:46.759Z,100382.63
2023-02-14T14:20:42.031Z,100377.03
2023-02-14T14:23:29.941Z,100378.09
2023-02-14T14:25:57.011Z,100377.66
2023-02-14T14:28:27.069Z,100377.06
2023-02-14T14:30:55.700Z,100377.28
2023-02-14T14:33:28.590Z,100381.47
2023-02-14T14:35:57.082Z,100373.38
2023-02-14T14:38:24.849Z,100380.66
2023-02-14T14:40:52.677Z,100376.31
2023-02-14T14:43:26.091Z,100377.56
2023-02-14T14:45:56.075Z,100377.16
2023-02-14T14:48:29.960Z,100383.00
2023-02-14T14:50:57.543Z,100378.22
2023-02-14T14:53:28.955Z,100378.22
2023-02-14T14:55:55.925Z,100376.16
2023-02-14T14:58:38.887Z,100371.34
2023-02-14T15:01:11.175Z,100371.13
2023-02-14T15:03:39.958Z,100365.91
2023-02-14T15:06:15.131Z,100367.16
2023-02-14T15:08:42.188Z,100365.25
2023-02-14T15:11:34.504Z,100361.72
2023-02-14T15:14:05.671Z,100358.59
2023-02-14T15:16:40.800Z,100362.53
2023-02-14T15:19:11.523Z,100363.38
2023-02-14T15:21:43.484Z,100357.53
2023-02-14T15:24:14.708Z,100360.66
2023-02-14T15:26:44.012Z,100368.31
2023-02-14T15:29:21.856Z,100366.25
2023-02-14T15:31:49.566Z,100367.69
2023-02-14T15:34:26.712Z,100362.69
2023-02-14T15:36:57.509Z,100357.47
2023-02-14T15:39:29.830Z,100353.31
2023-02-14T15:41:56.676Z,100355.56
2023-02-14T15:44:25.726Z,100357.00
2023-02-14T15:46:55.862Z,100358.22
2023-02-14T15:49:31.404Z,100355.75
2023-02-14T15:52:01.793Z,100362.34
2023-02-14T15:54:35.472Z,100358.00
2023-02-14T15:57:04.172Z,100363.78
2023-02-14T15:59:34.589Z,100357.56
2023-02-14T16:02:06.263Z,100364.00
2023-02-14T16:04:35.929Z,100356.50
2023-02-14T16:07:23.110Z,100363.13
2023-02-14T16:09:51.507Z,100358.13
2023-02-14T16:12:32.758Z,100364.78
2023-02-14T16:15:02.942Z,100366.19
2023-02-14T16:17:33.847Z,100359.53
2023-02-14T16:20:21.220Z,100356.44
2023-02-14T16:22:48.146Z,100352.25
2023-02-14T16:25:15.456Z,100354.50
2023-02-14T16:27:42.648Z,100349.31
2023-02-14T16:30:16.295Z,100350.13
2023-02-14T16:32:43.592Z,100352.59
2023-02-14T16:35:19.423Z,100355.66
2023-02-14T16:37:47.571Z,100350.47
2023-02-14T16:40:15.823Z,100350.66
2023-02-14T16:42:43.645Z,100347.97
2023-02-14T16:45:16.445Z,100344.81
2023-02-14T16:47:43.582Z,100346.03
2023-02-14T16:50:11.072Z,100345.81
2023-02-14T16:52:40.684Z,100351.03
2023-02-14T16:55:15.331Z,100352.53
2023-02-14T16:57:45.267Z,100351.31
2023-02-14T17:00:13.436Z,100358.97
2023-02-14T17:02:42.541Z,100349.66
2023-02-14T17:05:11.079Z,100348.66
2023-02-14T17:07:42.320Z,100352.44
2023-02-14T17:10:15.552Z,100361.38
2023-02-14T17:12:47.057Z,100353.53
2023-02-14T17:15:18.046Z,100347.72
2023-02-14T17:17:47.224Z,100356.88
2023-02-14T17:20:15.323Z,100358.13
2023-02-14T17:22:44.601Z,100359.59
2023-02-14T17:25:11.534Z,100365.22
2023-02-14T17:27:43.810Z,100364.81
2023-02-14T17:30:12.442Z,100365.91
2023-02-14T17:32:39.335Z,100373.59
2023-02-14T17:35:08.949Z,100366.75
2023-02-14T17:37:36.756Z,100366.16
2023-02-14T17:40:06.157Z,100363.06
2023-02-14T17:42:33.698Z,100369.94
2023-02-14T17:45:01.063Z,100367.88
2023-02-14T17:47:29.122Z,100366.63
2023-02-14T17:49:57.000Z,100362.69
2023-02-14T17:52:25.062Z,100365.19
2023-02-14T17:54:52.016Z,100365.81
2023-02-14T17:57:20.819Z,100367.06
2023-02-14T17:59:47.723Z,100364.16
2023-02-14T18:02:14.695Z,100357.53
2023-02-14T18:04:41.549Z,100357.53
2023-02-14T18:07:08.479Z,100350.06
2023-02-14T18:09:35.347Z,100350.06
2023-02-14T18:12:02.424Z,100356.72
2023-02-14T18:14:31.443Z,100357.13
2023-02-14T18:16:58.378Z,100354.88
2023-02-14T18:19:25.230Z,100353.44
2023-02-14T18:21:52.147Z,100357.59
2023-02-14T18:24:20.046Z,100354.88
2023-02-14T18:26:47.029Z,100353.84
2023-02-14T18:29:14.004Z,100360.31
2023-02-14T18:31:44.403Z,100360.72
2023-02-14T18:34:12.054Z,100356.75
2023-02-14T18:36:40.333Z,100358.22
2023-02-14T18:39:08.527Z,100358.84
2023-02-14T18:41:35.450Z,100349.50
2023-02-14T18:44:02.865Z,100346.22
2023-02-14T18:46:31.269Z,100344.34
2023-02-14T18:48:59.530Z,100346.84
2023-02-14T18:51:28.859Z,100348.50
2023-02-14T18:53:56.909Z,100342.28
2023-02-14T18:56:27.113Z,100340.63
2023-02-14T18:58:56.087Z,100344.34
2023-02-14T19:01:24.863Z,100339.78
2023-02-14T19:03:52.933Z,100337.28
2023-02-14T19:06:21.959Z,100339.34
2023-02-14T19:08:49.177Z,100334.56
2023-02-14T19:11:19.607Z,100341.44
2023-02-14T19:13:47.501Z,100338.53
2023-02-14T19:16:16.726Z,100331.06
2023-02-14T19:18:43.962Z,100334.56
2023-02-14T19:21:11.666Z,100327.09
2023-02-14T19:23:40.355Z,100325.88
2023-02-14T19:26:12.360Z,100325.22
2023-02-14T19:28:39.730Z,100321.28
2023-02-14T19:31:07.233Z,100326.47
2023-02-14T19:33:37.962Z,100326.47
2023-02-14T19:36:07.459Z,100328.75
2023-02-14T19:38:34.599Z,100326.91
2023-02-14T19:41:03.133Z,100327.72
2023-02-14T19:43:30.433Z,100324.81
2023-02-14T19:45:57.516Z,100320.03
2023-02-14T19:48:24.469Z,100313.78
2023-02-14T19:50:52.615Z,100315.25
2023-02-14T19:53:19.482Z,100314.84
2023-02-14T19:55:46.390Z,100316.91
2023-02-14T19:58:14.659Z,100314.63
2023-02-14T20:00:41.857Z,100323.53
2023-02-14T20:03:08.728Z,100320.63
2023-02-14T20:05:38.111Z,100319.84
2023-02-14T20:08:05.311Z,100320.63
2023-02-14T20:10:32.199Z,100312.53
2023-02-14T20:12:59.139Z,100317.72
2023-02-14T20:15:29.084Z,100316.91
2023-02-14T20:17:57.059Z,100309.41
2023-02-14T20:20:23.973Z,100311.06
2023-02-14T20:22:50.884Z,100313.78
2023-02-14T20:25:17.853Z,100310.25
2023-02-14T20:27:44.770Z,100308.56
2023-02-14T20:30:12.762Z,100304.63
2023-02-14T20:32:41.013Z,100309.41
2023-02-14T20:35:08.398Z,100304.00
2023-02-14T20:37:35.840Z,100303.16
2023-02-14T20:40:03.707Z,100295.06
2023-02-14T20:42:30.646Z,100294.47
2023-02-14T20:44:57.543Z,100294.88
2023-02-14T20:47:24.486Z,100296.13
2023-02-14T20:49:52.781Z,100294.03
2023-02-14T20:52:19.652Z,100289.88
2023-02-14T20:54:46.608Z,100287.38
2023-02-14T20:57:13.581Z,100286.16
2023-02-14T20:59:44.757Z,100285.75
2023-02-14T21:02:12.299Z,100293.81
2023-02-14T21:04:39.267Z,100276.16
2023-02-14T21:07:07.709Z,100275.72
2023-02-14T21:09:38.017Z,100276.16
2023-02-14T21:12:05.768Z,100271.38
2023-02-14T21:14:32.645Z,100277.38
2023-02-14T21:16:59.624Z,100270.31
2023-02-14T21:19:28.612Z,100275.72
2023-02-14T21:21:55.506Z,100271.56
2023-02-14T21:24:24.401Z,100275.31
2023-02-14T21:26:51.367Z,100279.66
2023-02-14T21:29:19.406Z,100278.63
2023-02-14T21:31:46.449Z,100279.03
2023-02-14T21:34:15.050Z,100270.53
2023-02-14T21:36:41.943Z,100263.88
2023-02-14T21:39:08.856Z,100265.31
2023-02-14T21:41:37.353Z,100268.41
2023-02-14T21:44:05.059Z,100261.16
2023-02-14T21:46:35.942Z,100263.63
2023-02-14T21:49:23.403Z,100253.63
2023-02-14T21:51:50.466Z,100261.50
2023-02-14T21:54:17.879Z,100260.66
2023-02-14T21:56:46.258Z,100261.25
2023-02-14T21:59:13.935Z,100262.47
2023-02-14T22:01:42.271Z,100258.53
2023-02-14T22:04:11.663Z,100265.16
2023-02-14T22:06:40.310Z,100265.56
2023-02-14T22:18:28.599Z,100252.38
2023-02-14T22:20:59.990Z,100260.84
2023-02-14T22:23:29.119Z,100267.44
2023-02-14T22:25:56.012Z,100269.53
2023-02-14T22:28:22.912Z,100263.50
2023-02-14T22:30:49.696Z,100272.00
2023-02-14T22:33:16.592Z,100271.34
2023-02-14T22:35:44.770Z,100269.47
2023-02-14T22:38:13.741Z,100267.78
2023-02-14T22:40:42.256Z,100266.50
2023-02-14T22:43:09.141Z,100262.16
2023-02-14T22:45:36.077Z,100262.53
2023-02-14T22:48:03.035Z,100263.97
2023-02-14T22:50:29.976Z,100271.44
2023-02-14T22:52:58.284Z,100262.69
2023-02-14T22:55:25.467Z,100255.03
2023-02-14T22:57:52.370Z,100254.38
2023-02-14T23:00:19.923Z,100258.31
2023-02-14T23:02:46.863Z,100261.41
2023-02-14T23:05:14.076Z,100261.59
2023-02-14T23:07:41.421Z,100270.09
2023-02-14T23:10:10.441Z,100266.75
2023-02-14T23:12:56.092Z,100269.81
2023-02-14T23:15:41.338Z,100271.25
2023-02-14T23:18:30.698Z,100276.19
2023-02-14T23:21:15.856Z,100268.69
2023-02-14T23:23:42.745Z,100274.50
2023-02-14T23:26:10.992Z,100268.25
2023-02-14T23:28:37.925Z,100269.09
2023-02-14T23:31:04.804Z,100266.56
2023-02-14T23:33:31.745Z,100264.06
2023-02-14T23:36:02.929Z,100266.09
2023-02-14T23:38:30.050Z,100273.75
2023-02-14T23:41:15.208Z,100266.91
2023-02-14T23:43:43.479Z,100272.47
2023-02-14T23:46:10.373Z,100264.59
2023-02-14T23:48:37.222Z,100254.19
2023-02-14T23:51:04.209Z,100260.81
2023-02-14T23:53:31.113Z,100261.66
2023-02-14T23:56:01.791Z,100263.06
2023-02-14T23:58:28.921Z,100263.25
